Terminal Aerodrome Forecast
Issued by NWS Wakefield, VA

Home | Current Version | Previous Version | Text Only | Print | Product List | Glossary On
Versions: 1 2 3 4 5 6 7 8 9 10 11 12 13 14 15 16
000
FTUS41 KAKQ 060540
TAFORF
TAF
KORF 060540Z 0606/0706 VRB03KT P6SM OVC100
     FM060900 04007KT P6SM VCSH OVC060
     FM061200 05010KT 6SM RA BR OVC050
     FM061400 06016G26KT 5SM RA BR OVC030
     FM061600 07018G28KT 3SM RA BR OVC007
     FM062100 07016G26KT 2SM RA BR OVC005
     FM070200 35012G20KT P6SM OVC004=

USA.gov is the U.S. government's official web portal to all federal, state and local government web resources and services.